Terminal Aerodrome Forecast
Issued by NWS

Home | Current Version | Previous Version | Text Only | Print | Product List | Glossary On
Versions: 1 2 3 4 5 6 7 8 9 10 11 12 13 14 15 16 17 18 19 20 21
000
FTAK31 PAFA 241125
TAFAMC
TAF
PAMC 241125Z 2412/2512 21012G18KT 5SM -SN BR SCT005 OVC015
     FM241500 21008G15KT P6SM BKN025 OVC050
     FM241900 22007G15KT P6SM OVC050
     FM250200 22014G20KT 4SM -SHRA BR OVC015=

USA.gov is the U.S. government's official web portal to all federal, state and local government web resources and services.